• Join FlightAware (Why Join?)
  • Login
  • US Flag 
01:42PM EDT


 

Airport Tracker/Info


-or-


 

Live Flight TrackerFlight Track Log ✈ ASA692 ✈ 11-May-2013 ✈ KSEA - KSAT

Flight Track Log - Related Links

Times and Time Zones

All times are in EDT time to prevent confusion due to time zone crossing. See the ASA692 flight status page for this flight to view local times or setup timezone preferences in your user account.

Time Position Orientation Groundspeed Altitude Reporting Facility
EDT Latitude Longitude Course Direction KTS MPH feet Rate Location/Type
04:00PM 47.4247 -122.3128 177° South 171 197 1,500  Level Seattle Center
04:01PM 47.4108 -122.3117 177° South 172 198 2,000 1,200 Climbing Seattle Center
04:02PM 47.3550 -122.3106 179° South 201 231 3,100 1,020 Climbing Seattle Center
04:03PM 47.2942 -122.2989 173° South 221 254 4,100 1,500 Climbing Seattle Center
04:04PM 47.2264 -122.2683 163° South 254 292 6,200 2,400 Climbing Seattle Center
04:05PM 47.1511 -122.2322 162° South 265 305 9,000 2,220 Climbing Seattle Center
04:06PM 47.0772 -122.1986 163° South 278 320 10,800 1,920 Climbing Seattle Center
04:07PM 46.9897 -122.1578 162° South 328 377 13,000 2,280 Climbing Seattle Center
04:08PM 46.8986 -122.1153 162° South 344 396 15,500 2,400 Climbing Seattle Center
04:09PM 46.8011 -122.0719 163° South 364 419 17,900 2,220 Climbing Seattle Center
04:10PM 46.7297 -121.9858 140° Southeast 390 449 20,000 1,980 Climbing Seattle Center
04:11PM 46.6728 -121.8492 121° Southeast 400 460 22,000 2,160 Climbing Seattle Center
04:12PM 46.6003 -121.6808 122° Southeast 414 476 24,500 1,980 Climbing Seattle Center
04:13PM 46.5383 -121.5300 121° Southeast 425 489 26,100 1,500 Climbing Seattle Center
04:14PM 46.4725 -121.3781 122° Southeast 438 504 27,600 1,380 Climbing Seattle Center
04:15PM 46.4058 -121.2211 122° Southeast 452 520 28,900 1,320 Climbing Seattle Center
04:16PM 46.3378 -121.0628 122° Southeast 460 529 30,300 1,380 Climbing Seattle Center
04:17PM 46.2678 -120.9022 122° Southeast 469 540 31,800 1,320 Climbing Seattle Center
04:18PM 46.1983 -120.7436 122° Southeast 469 540 33,000 1,140 Climbing Seattle Center
04:19PM 46.1300 -120.5889 122° Southeast 463 533 34,200 960 Climbing Seattle Center
04:20PM 46.0600 -120.4314 123° Southeast 465 535 35,000 840 Climbing Seattle Center
04:21PM 45.9894 -120.2731 123° Southeast 469 540 35,900 900 Climbing Seattle Center
04:22PM 45.9192 -120.1150 123° Southeast 469 540 36,900 540 Climbing Seattle Center
04:23PM 45.8489 -119.9594 123° Southeast 466 536 37,000  Climbing Seattle Center
04:24PM 45.7772 -119.8014 123° Southeast 471 542 37,000  Level Seattle Center
04:25PM 45.7056 -119.6453 123° Southeast 470 541 37,000  Level Seattle Center
04:26PM 45.6344 -119.4900 123° Southeast 467 537 37,000  Level Seattle Center
04:27PM 45.5639 -119.3344 123° Southeast 466 536 37,000  Level Seattle Center
04:28PM 45.4908 -119.1792 124° Southeast 468 539 37,000  Level Seattle Center
04:29PM 45.4183 -119.0214 123° Southeast 474 545 37,000  Level Seattle Center
04:30PM 45.3292 -118.8333 124° Southeast 475 547 37,000  Level Seattle Center
04:31PM 45.2558 -118.6772 124° Southeast 475 547 37,000  Level Seattle Center
04:32PM 45.1839 -118.5231 123° Southeast 471 542 37,000  Level Seattle Center
04:33PM 45.1089 -118.3678 124° Southeast 475 547 37,000  Level Seattle Center
04:34PM 45.0350 -118.2133 124° Southeast 471 542 37,000  Level Salt Lake Center
04:35PM 44.9533 -118.0461 125° Southeast 472 543 37,000  Level Salt Lake Center
04:36PM 44.8828 -117.8997 124° Southeast 471 542 37,000  Level Salt Lake Center
04:37PM 44.8094 -117.7553 126° Southeast 473 544 37,000  Level Salt Lake Center
04:38PM 44.7150 -117.5942 129° Southeast 477 549 37,000  Level Salt Lake Center
04:39PM 44.6339 -117.4558 129° Southeast 479 551 37,000  Level Salt Lake Center
04:40PM 44.5400 -117.2936 129° Southeast 480 552 37,000  Level Salt Lake Center
04:41PM 44.4586 -117.1542 129° Southeast 483 556 37,000  Level Salt Lake Center
04:42PM 44.3764 -117.0172 130° Southeast 483 556 37,000  Level Salt Lake Center
04:43PM 44.2817 -116.8550 129° Southeast 485 558 37,000  Level Salt Lake Center
04:44PM 44.1989 -116.7178 130° Southeast 485 558 37,000  Level Salt Lake Center
04:45PM 44.1019 -116.5564 130° Southeast 490 564 37,000  Level Salt Lake Center
04:46PM 44.0206 -116.4203 130° Southeast 483 556 37,000  Level Salt Lake Center
04:47PM 43.9247 -116.2611 130° Southeast 483 556 37,000  Level Salt Lake Center
04:48PM 43.8436 -116.1258 130° Southeast 481 554 37,000  Level Salt Lake Center
04:49PM 43.7606 -115.9906 130° Southeast 481 554 37,000  Level Salt Lake Center
04:50PM 43.6647 -115.8331 130° Southeast 480 552 37,000  Level Salt Lake Center
04:52PM 43.5814 -115.6981 130° Southeast 482 555 37,000  Level Salt Lake Center
04:53PM 43.4856 -115.5417 130° Southeast 478 550 37,000  Level Salt Lake Center
04:54PM 43.4025 -115.4089 131° Southeast 479 551 37,000  Level Salt Lake Center
04:55PM 43.3192 -115.2775 131° Southeast 477 549 37,000  Level Salt Lake Center
04:56PM 43.2233 -115.1225 130° Southeast 478 550 37,000  Level Salt Lake Center
04:57PM 43.1397 -114.9919 131° Southeast 477 549 37,000  Level Salt Lake Center
04:58PM 43.0428 -114.8392 131° Southeast 476 548 37,000  Level Salt Lake Center
04:59PM 42.9600 -114.7097 131° Southeast 474 545 37,000  Level Salt Lake Center
05:00PM 42.8675 -114.5650 131° Southeast 471 542 37,000  Level Salt Lake Center
05:01PM 42.7892 -114.4439 131° Southeast 469 540 37,000  Level Salt Lake Center
05:02PM 42.7033 -114.3117 131° Southeast 467 537 37,000  Level Salt Lake Center
05:03PM 42.6167 -114.1794 132° Southeast 468 539 37,000  Level Salt Lake Center
05:04PM 42.5142 -114.0203 131° Southeast 469 540 37,000  Level Salt Lake Center
05:05PM 42.4278 -113.8883 132° Southeast 469 540 37,000  Level Salt Lake Center
05:06PM 42.3364 -113.7606 134° Southeast 473 544 37,000  Level Salt Lake Center
05:07PM 42.2483 -113.6294 132° Southeast 474 545 37,000  Level Salt Lake Center
05:08PM 42.1600 -113.5000 133° Southeast 470 541 37,000  Level Salt Lake Center
05:09PM 42.0731 -113.3747 133° Southeast 461 531 37,000  Level Salt Lake Center
05:10PM 41.9864 -113.2506 133° Southeast 457 526 37,000  Level Salt Lake Center
05:11PM 41.9008 -113.1253 133° Southeast 456 525 37,000  Level Salt Lake Center
05:12PM 41.7961 -112.9772 133° Southeast 457 526 37,000  Level Salt Lake Center
05:13PM 41.7092 -112.8528 133° Southeast 459 528 37,000  Level Salt Lake Center
05:14PM 41.6217 -112.7286 133° Southeast 461 531 37,000  Level Salt Lake Center
05:15PM 41.5331 -112.6053 134° Southeast 460 529 37,000  Level Salt Lake Center
05:16PM 41.4439 -112.4803 134° Southeast 464 534 37,000  Level Salt Lake Center
05:17PM 41.3544 -112.3542 133° Southeast 469 540 37,000  Level Salt Lake Center
05:18PM 41.2650 -112.2300 134° Southeast 467 537 37,000  Level Salt Lake Center
05:19PM 41.1758 -112.1053 134° Southeast 467 537 37,000  Level Salt Lake Center
05:20PM 41.0694 -111.9586 134° Southeast 463 533 37,000  Level Salt Lake Center
05:21PM 40.9808 -111.8353 134° Southeast 463 533 37,000  Level Salt Lake Center
05:22PM 40.8981 -111.7222 134° Southeast 465 535 37,000  Level Salt Lake Center
05:23PM 40.8092 -111.6011 134° Southeast 461 531 37,000  Level Salt Lake Center
05:24PM 40.7200 -111.4800 134° Southeast 461 531 37,000  Level Salt Lake Center
05:25PM 40.6133 -111.3344 134° Southeast 461 531 37,000  Level Salt Lake Center
05:26PM 40.5236 -111.2153 135° Southeast 458 527 37,000  Level Salt Lake Center
05:27PM 40.4331 -111.0931 134° Southeast 466 536 37,000  Level Salt Lake Center
05:28PM 40.3414 -110.9711 135° Southeast 470 541 37,000  Level Salt Lake Center
05:29PM 40.2414 -110.8372 134° Southeast 468 539 37,000  Level Salt Lake Center
05:30PM 40.1544 -110.7233 135° Southeast 465 535 37,000  Level Salt Lake Center
05:31PM 40.0678 -110.6081 134° Southeast 465 535 37,000  Level Salt Lake Center
05:32PM 39.9658 -110.4753 135° Southeast 464 534 37,000  Level Salt Lake Center
05:33PM 39.8789 -110.3622 135° Southeast 463 533 37,000  Level Salt Lake Center
05:35PM 39.7772 -110.2294 135° Southeast 464 534 37,000  Level Salt Lake Center
05:36PM 39.6894 -110.1158 135° Southeast 465 535 37,000  Level Salt Lake Center
05:36PM 39.6014 -110.0011 135° Southeast 464 534 37,000  Level Denver Center
05:38PM 39.4997 -109.8692 135° Southeast 464 534 37,000  Level Denver Center
05:39PM 39.4131 -109.7583 135° Southeast 461 531 37,000  Level Denver Center
05:40PM 39.3117 -109.6278 135° Southeast 461 531 37,000  Level Denver Center
05:41PM 39.2233 -109.5158 136° Southeast 467 537 37,000  Level Denver Center
05:42PM 39.1367 -109.4058 135° Southeast 459 528 37,000  Level Denver Center
05:43PM 39.0342 -109.2769 136° Southeast 462 532 37,000  Level Denver Center
05:44PM 38.9478 -109.1675 135° Southeast 458 527 37,000  Level Denver Center
05:45PM 38.8458 -109.0394 136° Southeast 460 529 37,000  Level Denver Center
05:46PM 38.7583 -108.9308 136° Southeast 458 527 37,000  Level Denver Center
05:47PM 38.6553 -108.8025 136° Southeast 463 533 37,000  Level Denver Center
05:48PM 38.5675 -108.6942 136° Southeast 461 531 37,000  Level Denver Center
05:49PM 38.4792 -108.5856 136° Southeast 461 531 37,000  Level Denver Center
05:50PM 38.3758 -108.4597 136° Southeast 460 529 37,000  Level Denver Center
05:51PM 38.2889 -108.3506 135° Southeast 460 529 37,000  Level Denver Center
05:52PM 38.1858 -108.2250 136° Southeast 459 528 37,000  Level Denver Center
05:53PM 38.0981 -108.1200 137° Southeast 455 524 37,000  Level Denver Center
05:54PM 38.0081 -108.0092 136° Southeast 456 525 37,000  Level Denver Center
05:55PM 37.9083 -107.8817 135° Southeast 455 524 37,000  Level Denver Center
05:56PM 37.8244 -107.7744 135° Southeast 450 518 37,000  Level Denver Center
05:57PM 37.7244 -107.6489 135° Southeast 452 520 37,000  Level Denver Center
05:58PM 37.6256 -107.5244 135° Southeast 449 517 37,000  Level Denver Center
05:59PM 37.5283 -107.4036 135° Southeast 441 507 37,000  Level Denver Center
06:00PM 37.4442 -107.2978 135° Southeast 444 511 37,000  Level Denver Center
06:02PM 37.3314 -107.1556 135° Southeast 449 517 37,000  Level Denver Center
06:03PM 37.2467 -107.0497 135° Southeast 449 517 37,000  Level Denver Center
06:04PM 37.1475 -106.9275 135° Southeast 447 514 37,000  Level Denver Center
06:05PM 37.0619 -106.8228 136° Southeast 447 514 37,000  Level Denver Center
06:06PM 36.9758 -106.7167 135° Southeast 452 520 37,000  Level Denver Center
06:07PM 36.8756 -106.5931 135° Southeast 452 520 37,000  Level Denver Center
06:08PM 36.7897 -106.4878 135° Southeast 452 520 37,000  Level Denver Center
06:09PM 36.6878 -106.3650 136° Southeast 457 526 37,000  Level Denver Center
06:10PM 36.5978 -106.2550 136° Southeast 454 522 37,000  Level Denver Center
06:11PM 36.5081 -106.1464 136° Southeast 450 518 37,000  Level Denver Center
06:12PM 36.4186 -106.0378 136° Southeast 449 517 37,000  Level Denver Center
06:13PM 36.3289 -105.9314 136° Southeast 448 516 37,000  Level Albuquerque Center
06:14PM 36.2386 -105.8233 136° Southeast 450 518 37,000  Level Albuquerque Center
06:15PM 36.1497 -105.7167 136° Southeast 447 514 37,000  Level Albuquerque Center
06:16PM 36.0422 -105.5886 136° Southeast 445 512 37,000  Level Albuquerque Center
06:17PM 35.9608 -105.4925 136° Southeast 443 510 37,000  Level Albuquerque Center
06:18PM 35.8711 -105.3869 136° Southeast 442 509 37,000  Level Albuquerque Center
06:19PM 35.7672 -105.2631 136° Southeast 443 510 37,000  Level Albuquerque Center
06:20PM 35.6761 -105.1597 137° Southeast 442 509 37,000  Level Albuquerque Center
06:21PM 35.5856 -105.0556 137° Southeast 443 510 37,000  Level Albuquerque Center
06:22PM 35.4936 -104.9517 137° Southeast 445 512 37,000  Level Albuquerque Center
06:23PM 35.4019 -104.8464 137° Southeast 447 514 37,000  Level Albuquerque Center
06:24PM 35.3092 -104.7417 137° Southeast 450 518 37,000  Level Albuquerque Center
06:25PM 35.2181 -104.6389 137° Southeast 446 513 37,000  Level Albuquerque Center
06:27PM 35.0964 -104.5054 138° Southeast  Level FlightAware Approximate
06:27PM 35.0367 -104.4358 138° Southeast 445 512 37,000  Level Albuquerque Center
06:28PM 34.9319 -104.3192 138° Southeast 440 506 37,000  Level Albuquerque Center
06:29PM 34.8425 -104.2197 138° Southeast 436 502 37,000  Level Albuquerque Center
06:30PM 34.7531 -104.1203 138° Southeast 434 499 37,000  Level Albuquerque Center
06:31PM 34.6633 -104.0206 138° Southeast 434 499 37,000  Level Albuquerque Center
06:32PM 34.5736 -103.9222 138° Southeast 433 498 37,000  Level Albuquerque Center
06:33PM 34.4833 -103.8219 138° Southeast 435 501 37,000  Level Albuquerque Center
06:34PM 34.3936 -103.7219 137° Southeast 435 501 37,000  Level Albuquerque Center
06:35PM 34.3022 -103.6239 138° Southeast 434 499 37,000  Level Albuquerque Center
06:36PM 34.2044 -103.5194 139° Southeast 439 505 37,000  Level Albuquerque Center
06:37PM 34.1067 -103.4322 144° Southeast 439 505 37,000 60 Level Albuquerque Center
06:38PM 34.0011 -103.3586 150° Southeast 438 504 37,200 360 Climbing Albuquerque Center
06:39PM 33.8964 -103.2800 148° Southeast 441 507 37,800 720 Climbing Albuquerque Center
06:40PM 33.7928 -103.1978 147° Southeast 446 513 38,700 540 Climbing Albuquerque Center
06:42PM 33.6889 -103.1144 146° Southeast 448 516 39,000 120 Climbing Albuquerque Center
06:43PM 33.5869 -103.0306 146° Southeast 446 513 39,000  Level Albuquerque Center
06:44PM 33.4844 -102.9464 146° Southeast 446 513 39,000  Level Albuquerque Center
06:44PM 33.4033 -102.8700 142° Southeast 446 513 39,000  Level Fort Worth Center
06:45PM 33.3117 -102.7672 137° Southeast 451 519 39,000  Level Fort Worth Center
06:46PM 33.2203 -102.6625 136° Southeast 451 519 39,000  Level Fort Worth Center
06:47PM 33.1144 -102.5472 138° Southeast 462 532 39,000  Level Fort Worth Center
06:48PM 33.0306 -102.4481 135° Southeast 462 532 39,000  Level Fort Worth Center
06:49PM 32.9389 -102.3439 136° Southeast 457 526 39,000  Level Fort Worth Center
06:50PM 32.8508 -102.2425 136° Southeast 450 518 39,000  Level Fort Worth Center
06:51PM 32.7586 -102.1439 138° Southeast 450 518 39,000 -540 Level Fort Worth Center
06:52PM 32.6686 -102.0428 137° Southeast 455 524 38,000 -960 Descending Fort Worth Center
06:53PM 32.5764 -101.9394 137° Southeast 455 524 37,100 -960 Descending Fort Worth Center
06:54PM 32.4839 -101.8414 138° Southeast 450 518 36,100 -960 Descending Fort Worth Center
06:55PM 32.3894 -101.7358 137° Southeast 456 525 35,200 -960 Descending Fort Worth Center
06:56PM 32.2947 -101.6331 137° Southeast 456 525 34,200 -600 Descending Fort Worth Center
06:57PM 32.2003 -101.5281 137° Southeast 456 525 34,000 -120 Descending Fort Worth Center
06:58PM 32.1017 -101.4131 135° Southeast 453 521 34,000  Level Fort Worth Center
06:59PM 32.0028 -101.3058 137° Southeast 460 529 34,000  Level Fort Worth Center
07:00PM 31.9097 -101.2064 138° Southeast 460 529 34,000  Level Fort Worth Center
07:01PM 31.8189 -101.1050 137° Southeast 460 529 34,000  Level Fort Worth Center
07:03PM 31.6414 -100.9208 139° Southeast 463 533 34,000  Level Houston Center
07:04PM 31.5461 -100.8214 138° Southeast 460 529 34,000  Level Houston Center
07:05PM 31.4556 -100.7219 137° Southeast 452 520 34,000 -300 Level Houston Center
07:06PM 31.3661 -100.6253 137° Southeast 443 510 33,500 -1,500 Descending Houston Center
07:07PM 31.2806 -100.5353 138° Southeast 421 484 31,000 -1,260 Descending Houston Center
07:08PM 31.1958 -100.4461 138° Southeast 414 476 31,000  Level Houston Center
07:09PM 31.1117 -100.3558 137° Southeast 410 472 31,000  Level Houston Center
07:10PM 31.0264 -100.2653 138° Southeast 412 474 31,000  Level Houston Center
07:11PM 30.9414 -100.1769 138° Southeast 410 472 31,000  Level Houston Center
07:12PM 30.8403 -100.0706 138° Southeast 408 470 31,000 -360 Level Houston Center
07:13PM 30.7550 -99.9808 138° Southeast 411 473 30,300 -900 Descending Houston Center
07:14PM 30.6711 -99.8939 138° Southeast 405 466 29,200 -1,080 Descending Houston Center
07:15PM 30.5883 -99.8072 138° Southeast 401 461 28,200 -1,260 Descending Houston Center
07:16PM 30.5008 -99.7300 143° Southeast 396 456 26,700 -1,680 Descending Houston Center
07:17PM 30.4167 -99.6544 142° Southeast 385 443 24,800 -1,860 Descending Houston Center
07:19PM 30.3347 -99.5803 142° Southeast 376 433 23,000 -1,800 Descending Houston Center
07:20PM 30.2539 -99.5092 143° Southeast 367 422 21,200 -1,800 Descending Houston Center
07:21PM 30.1750 -99.4381 142° Southeast 358 412 19,400 -1,740 Descending Houston Center
07:22PM 30.0967 -99.3689 143° Southeast 354 407 17,700 -1,800 Descending Houston Center
07:22PM 30.0506 -99.3292 143° Southeast 352 405 16,700 -1,800 Descending Houston Center
07:23PM 30.0192 -99.3000 141° Southeast 353 406 15,900 -1,800 Descending Houston Center
07:23PM 29.9622 -99.2522 144° Southeast 351 404 14,700 -2,100 Descending Houston Center
07:24PM 29.9269 -99.2175 140° Southeast 348 400 13,800 -1,800 Descending Houston Center
07:24PM 29.8992 -99.1533 117° Southeast 345 397 12,700 -1,800 Descending Houston Center
07:25PM 29.8875 -99.1175 111° Southeast 344 396 12,000 -1,800 Descending Houston Center
07:25PM 29.8611 -99.0542 116° Southeast 336 387 10,900 -1,680 Descending Houston Center
07:26PM 29.8478 -99.0153 112° Southeast 330 380 10,300 -1,140 Descending Houston Center
07:26PM 29.8167 -98.9775 134° Southeast 310 357 9,900 -1,020 Descending Houston Center
07:27PM 29.7906 -98.9450 133° Southeast 297 342 9,300 -1,200 Descending Houston Center
07:27PM 29.7583 -98.9119 138° Southeast 283 326 8,700 -1,320 Descending Houston Center
07:28PM 29.7328 -98.8819 134° Southeast 287 330 8,000 -1,380 Descending Houston Center
07:28PM 29.7006 -98.8514 141° Southeast 282 325 7,300 -1,260 Descending Houston Center
07:29PM 29.6750 -98.8228 136° Southeast 278 320 6,700 -1,200 Descending Houston Center
07:29PM 29.6383 -98.7889 141° Southeast 274 315 6,000 -720 Descending Houston Center
07:30PM 29.6142 -98.7622 136° Southeast 270 311 6,000  Level Houston Center
07:30PM 29.5828 -98.7331 141° Southeast 243 280 6,000  Level Houston Center
07:31PM 29.5639 -98.7128 137° Southeast 242 278 6,000 -300 Level Houston Center
07:31PM 29.5303 -98.6839 143° Southeast 222 255 5,700 -720 Descending Houston Center
07:32PM 29.5169 -98.6681 134° Southeast 224 258 5,300 -1,200 Descending Houston Center
07:32PM 29.4864 -98.6411 142° Southeast 202 232 4,500 -1,200 Descending Houston Center
07:33PM 29.4694 -98.6247 140° Southeast 206 237 4,100 -1,140 Descending Houston Center
07:33PM 29.4453 -98.6053 145° Southeast 201 231 3,500 -1,140 Descending Houston Center
07:34PM 29.4272 -98.5847 135° Southeast 199 229 3,000 -540 Descending Houston Center
07:34PM 29.4328 -98.5586 76° East 181 208 3,000 -240 Level Houston Center
07:35PM 29.4494 -98.5425 40° Northeast 165 190 2,800 -600 Descending Houston Center
07:35PM 29.4636 -98.5286 40° Northeast 138 159 2,400 -780 Descending Houston Center
07:36PM 29.4817 -98.5111 40° Northeast 143 165 2,000 -840 Descending Houston Center
07:36PM 29.4944 -98.4986 40° Northeast 136 157 1,600 -840 Descending Houston Center
07:37PM 29.5111 -98.4822 41° Northeast 140 161 1,200 -540 Descending Houston Center
07:38PM 29.5431 -98.4525 39° Northeast 140 161 800 -420 Descending Houston Center